Time;durP1;ratioP1;P1;durP2;ratioP2;P2;SDS_P1;SDS_P2;PMS_P1;PMS_P2;Temp;Humidity;BMP_temperature;BMP_pressure;BME280_temperature;BME280_humidity;BME280_pressure;Samples;Min_cycle;Max_cycle;Signal;HPM_P1;HPM_P2
2022/04/23 00:00:08;;;;;;;23.88;11.52;;;10.70;88.60;;;;;;4940262;28;20031;-73
2022/04/23 00:02:33;;;;;;;20.95;10.82;;;10.70;89.40;;;;;;4940968;28;20122;-74
2022/04/23 00:04:59;;;;;;;23.75;11.20;;;10.60;89.60;;;;;;4940926;28;20110;-76
2022/04/23 00:07:25;;;;;;;27.27;11.15;;;10.60;89.80;;;;;;4943293;28;20035;-74
2022/04/23 00:09:50;;;;;;;25.92;10.77;;;10.60;89.60;;;;;;4940174;28;20046;-76
2022/04/23 00:12:16;;;;;;;30.17;11.10;;;10.60;89.30;;;;;;4937264;28;20285;-74
2022/04/23 00:14:43;;;;;;;28.65;11.55;;;10.60;89.60;;;;;;4939906;28;20031;-74
2022/04/23 00:17:09;;;;;;;22.95;10.40;;;10.60;89.90;;;;;;4939837;28;20039;-75
2022/04/23 00:19:35;;;;;;;29.10;13.77;;;10.60;89.80;;;;;;4939838;28;20055;-74
2022/04/23 00:22:01;;;;;;;28.98;11.38;;;10.60;89.70;;;;;;4943721;28;20341;-74
2022/04/23 00:24:27;;;;;;;21.23;11.45;;;10.60;89.80;;;;;;4945048;28;20681;-74
2022/04/23 00:26:52;;;;;;;22.50;11.65;;;10.60;90.20;;;;;;4948910;28;20050;-74
2022/04/23 00:29:18;;;;;;;27.67;11.23;;;10.60;90.30;;;;;;4939896;28;20043;-76
2022/04/23 00:31:43;;;;;;;26.08;11.43;;;10.50;90.00;;;;;;4940185;28;20126;-75
2022/04/23 00:34:09;;;;;;;24.90;11.63;;;10.60;90.00;;;;;;4940628;28;20046;-74
2022/04/23 00:36:35;;;;;;;28.15;11.32;;;10.50;90.10;;;;;;4941255;28;20031;-74
2022/04/23 00:39:01;;;;;;;26.10;11.23;;;10.60;90.20;;;;;;4938947;28;20038;-74
2022/04/23 00:41:46;;;;;;;30.42;12.10;;;10.60;90.20;;;;;;4939837;28;20038;-74
2022/04/23 00:44:15;;;;;;;27.80;12.65;;;10.60;90.20;;;;;;4939891;28;20128;-74
2022/04/23 00:46:41;;;;;;;30.20;12.07;;;10.60;90.30;;;;;;4928459;29;20023;-74
2022/04/23 00:49:07;;;;;;;24.02;11.00;;;10.60;90.20;;;;;;4939399;28;20171;-74
2022/04/23 00:51:33;;;;;;;26.15;11.05;;;10.60;90.10;;;;;;4939125;28;20115;-74
2022/04/23 00:54:05;;;;;;;20.25;10.18;;;10.60;90.20;;;;;;4942183;28;20035;-75
2022/04/23 00:56:31;;;;;;;26.80;12.27;;;10.70;90.10;;;;;;4940844;29;20031;-74
2022/04/23 00:58:57;;;;;;;28.08;12.07;;;10.70;90.00;;;;;;4941078;28;20998;-74
2022/04/23 01:01:24;;;;;;;23.13;11.63;;;10.70;90.10;;;;;;4938886;29;20031;-74
2022/04/23 01:03:51;;;;;;;24.95;13.25;;;10.70;90.00;;;;;;4938879;28;20029;-74
2022/04/23 01:06:18;;;;;;;27.85;12.23;;;10.70;90.00;;;;;;4938223;28;20058;-75
2022/04/23 01:08:44;;;;;;;30.80;12.85;;;10.70;90.40;;;;;;4937874;28;20032;-74
2022/04/23 01:11:10;;;;;;;24.73;11.95;;;10.70;90.30;;;;;;4934590;28;20581;-75
2022/04/23 01:13:35;;;;;;;28.58;12.50;;;10.70;90.00;;;;;;4940252;28;20035;-74
2022/04/23 01:16:07;;;;;;;24.90;11.40;;;10.70;90.30;;;;;;4935914;28;20494;-74
2022/04/23 01:18:34;;;;;;;25.48;12.32;;;10.70;90.40;;;;;;4937330;28;20027;-73
2022/04/23 01:21:04;;;;;;;34.60;12.38;;;10.70;90.40;;;;;;4936048;28;20039;-74
2022/04/23 01:23:30;;;;;;;32.40;12.45;;;10.70;90.40;;;;;;4933638;28;20098;-74
2022/04/23 01:25:57;;;;;;;33.80;12.88;;;10.70;90.60;;;;;;4930427;29;20434;-74
2022/04/23 01:28:25;;;;;;;28.20;12.63;;;10.60;90.50;;;;;;4945937;28;20043;-75
2022/04/23 01:30:57;;;;;;;26.90;13.57;;;10.70;90.40;;;;;;4945036;28;20050;-74
2022/04/23 01:33:23;;;;;;;30.27;13.48;;;10.70;90.50;;;;;;4934482;28;20267;-75
2022/04/23 01:35:49;;;;;;;27.17;12.38;;;10.70;90.60;;;;;;4939219;28;20582;-74
2022/04/23 01:38:14;;;;;;;30.45;13.30;;;10.70;90.70;;;;;;4942607;28;20554;-75
2022/04/23 01:40:41;;;;;;;32.90;12.57;;;10.70;90.70;;;;;;4950269;28;20039;-75
2022/04/23 01:43:08;;;;;;;32.25;12.70;;;10.60;90.90;;;;;;4944789;28;20042;-75
2022/04/23 01:45:34;;;;;;;26.30;13.68;;;10.70;90.70;;;;;;4936274;28;20145;-75
2022/04/23 01:47:59;;;;;;;32.30;14.77;;;10.70;90.80;;;;;;4942221;28;20553;-75
2022/04/23 01:50:25;;;;;;;32.33;12.95;;;10.60;91.10;;;;;;4938540;28;20035;-75
2022/04/23 01:52:51;;;;;;;30.27;13.98;;;10.60;91.10;;;;;;4940962;28;20105;-74
2022/04/23 01:55:16;;;;;;;36.38;14.25;;;10.60;91.30;;;;;;4947281;29;20019;-75
2022/04/23 01:57:42;;;;;;;35.75;13.77;;;10.60;91.10;;;;;;4947000;28;20031;-74
2022/04/23 02:00:10;;;;;;;30.25;13.60;;;10.70;91.20;;;;;;4937985;28;20598;-75
2022/04/23 02:02:39;;;;;;;30.20;13.32;;;10.60;91.00;;;;;;4941158;28;20396;-74
2022/04/23 02:05:06;;;;;;;30.52;14.73;;;10.70;91.20;;;;;;4935858;28;20035;-75
2022/04/23 02:07:39;;;;;;;30.83;14.60;;;10.70;91.30;;;;;;4942613;28;20322;-74
2022/04/23 02:10:10;;;;;;;28.33;14.07;;;10.60;91.30;;;;;;4943760;28;20039;-74
2022/04/23 02:12:38;;;;;;;33.10;14.15;;;10.60;91.10;;;;;;4952231;28;20122;-75
2022/04/23 02:15:07;;;;;;;30.40;14.73;;;10.70;91.10;;;;;;4942877;28;20043;-74
2022/04/23 02:17:37;;;;;;;31.70;13.55;;;10.70;90.90;;;;;;4934497;28;20439;-75
2022/04/23 02:20:07;;;;;;;35.13;14.10;;;10.80;91.20;;;;;;4934687;28;20038;-75
2022/04/23 02:22:33;;;;;;;28.00;13.57;;;10.70;91.10;;;;;;4936961;28;20031;-75
2022/04/23 02:24:59;;;;;;;30.92;13.43;;;10.70;91.10;;;;;;4937521;28;20031;-75
2022/04/23 02:27:25;;;;;;;34.38;14.65;;;10.70;91.20;;;;;;4951931;28;20028;-75
2022/04/23 02:29:51;;;;;;;35.17;13.60;;;10.70;91.10;;;;;;4951452;28;20407;-75
2022/04/23 02:32:17;;;;;;;37.08;13.93;;;10.70;91.30;;;;;;4933907;28;20020;-75
2022/04/23 02:34:43;;;;;;;33.00;14.18;;;10.70;91.40;;;;;;4932729;28;20428;-75
2022/04/23 02:37:09;;;;;;;28.67;14.55;;;10.70;91.70;;;;;;4949242;28;20039;-75
2022/04/23 02:39:35;;;;;;;30.88;13.77;;;10.70;91.50;;;;;;4952747;28;20095;-74
2022/04/23 02:42:01;;;;;;;27.88;14.13;;;10.60;91.60;;;;;;4934105;28;20079;-74
2022/04/23 02:44:28;;;;;;;30.52;13.60;;;10.60;91.60;;;;;;4936998;28;20031;-75
2022/04/23 02:46:54;;;;;;;33.13;14.02;;;10.60;91.60;;;;;;4955578;28;20509;-75
2022/04/23 02:49:20;;;;;;;36.28;14.32;;;10.60;91.70;;;;;;4940607;28;20078;-74
2022/04/23 02:51:46;;;;;;;28.52;13.50;;;10.60;91.60;;;;;;4941490;28;20169;-75
2022/04/23 02:54:12;;;;;;;33.70;14.43;;;10.60;91.70;;;;;;4936234;28;20046;-75
2022/04/23 02:56:38;;;;;;;31.88;13.00;;;10.60;91.80;;;;;;4939951;28;20252;-74
2022/04/23 02:59:05;;;;;;;32.53;14.48;;;10.60;91.70;;;;;;4934748;28;20074;-75
2022/04/23 03:01:31;;;;;;;34.05;15.75;;;10.60;91.40;;;;;;4934735;28;20487;-74
2022/04/23 03:03:58;;;;;;;35.95;15.95;;;10.80;90.70;;;;;;4932645;28;20318;-74
2022/04/23 03:06:28;;;;;;;33.38;16.55;;;10.90;90.80;;;;;;4923668;28;20019;-73
2022/04/23 03:08:56;;;;;;;32.85;15.55;;;10.90;90.40;;;;;;4926770;28;20031;-75
2022/04/23 03:11:22;;;;;;;30.45;16.33;;;10.90;90.40;;;;;;4937052;28;20050;-74
2022/04/23 03:13:48;;;;;;;30.63;14.73;;;10.90;90.50;;;;;;4936558;28;20031;-74
2022/04/23 03:16:13;;;;;;;41.40;16.23;;;10.90;90.70;;;;;;4935934;28;20129;-75
2022/04/23 03:18:39;;;;;;;39.22;15.90;;;11.00;90.30;;;;;;4929653;28;20510;-74
2022/04/23 03:21:05;;;;;;;35.33;16.77;;;10.90;90.50;;;;;;4922516;28;20040;-74
2022/04/23 03:23:31;;;;;;;29.20;15.40;;;10.90;90.50;;;;;;4933817;28;20105;-74
2022/04/23 03:25:57;;;;;;;35.53;16.40;;;10.90;90.70;;;;;;4918959;29;20031;-74
2022/04/23 03:28:23;;;;;;;39.97;17.17;;;10.90;90.70;;;;;;4926462;28;20391;-74
2022/04/23 03:30:48;;;;;;;38.40;16.33;;;11.00;90.30;;;;;;4929191;29;20262;-74
2022/04/23 03:33:14;;;;;;;39.15;16.60;;;11.00;90.40;;;;;;4938303;28;20114;-74
2022/04/23 03:35:40;;;;;;;35.40;16.00;;;11.10;89.80;;;;;;4940170;28;20035;-74
2022/04/23 03:38:05;;;;;;;31.10;14.98;;;11.00;90.10;;;;;;4934273;28;20027;-74
2022/04/23 03:40:31;;;;;;;34.05;14.57;;;11.00;90.50;;;;;;4938503;29;20045;-73
2022/04/23 03:42:57;;;;;;;35.85;16.67;;;11.00;90.80;;;;;;4937317;28;20031;-74
2022/04/23 03:45:24;;;;;;;35.35;16.38;;;11.00;90.50;;;;;;4938016;29;20035;-73
2022/04/23 03:47:49;;;;;;;35.35;18.05;;;11.00;90.30;;;;;;4935928;28;20098;-74
2022/04/23 03:50:16;;;;;;;39.70;17.75;;;11.10;89.90;;;;;;4936850;28;20046;-74
2022/04/23 03:52:42;;;;;;;35.75;17.02;;;11.10;90.10;;;;;;4933504;28;20092;-74
2022/04/23 03:55:09;;;;;;;30.20;16.80;;;11.10;89.90;;;;;;4936698;28;20154;-73
2022/04/23 03:57:45;;;;;;;36.45;18.60;;;11.10;90.00;;;;;;4938594;28;20035;-74
2022/04/23 04:00:13;;;;;;;38.45;19.15;;;11.10;89.70;;;;;;4936978;28;20043;-74
2022/04/23 04:02:39;;;;;;;36.35;18.40;;;11.10;89.30;;;;;;4941864;28;20027;-75
2022/04/23 04:05:05;;;;;;;42.25;18.63;;;11.20;89.30;;;;;;4938780;28;20035;-74
2022/04/23 04:07:30;;;;;;;40.20;17.23;;;11.20;89.60;;;;;;4941459;28;20545;-74
2022/04/23 04:09:56;;;;;;;43.35;19.35;;;11.20;89.30;;;;;;4938119;28;20043;-74
2022/04/23 04:12:21;;;;;;;37.70;17.90;;;11.20;89.00;;;;;;4955293;28;20035;-74
2022/04/23 04:14:47;;;;;;;42.42;19.70;;;11.20;89.60;;;;;;4938903;28;20035;-75
2022/04/23 04:17:15;;;;;;;42.63;19.05;;;11.20;89.40;;;;;;4939396;28;20055;-74
2022/04/23 04:19:41;;;;;;;40.90;20.73;;;11.10;89.30;;;;;;4945723;28;20536;-74
2022/04/23 04:22:08;;;;;;;35.97;19.02;;;11.10;89.30;;;;;;4941098;29;20496;-73
2022/04/23 04:24:35;;;;;;;33.20;19.08;;;11.20;89.30;;;;;;4939811;28;20039;-73
2022/04/23 04:27:00;;;;;;;43.85;19.70;;;11.20;89.20;;;;;;4928643;29;20039;-74
2022/04/23 04:29:26;;;;;;;36.60;19.95;;;11.20;88.10;;;;;;4937952;28;20051;-74
2022/04/23 04:31:53;;;;;;;39.95;21.48;;;11.20;87.90;;;;;;4939727;28;20027;-74
2022/04/23 04:34:29;;;;;;;37.03;20.08;;;11.30;87.40;;;;;;4940145;28;20073;-74
2022/04/23 04:37:12;;;;;;;38.80;20.65;;;11.30;87.60;;;;;;4940383;28;20043;-72
2022/04/23 04:39:40;;;;;;;35.78;20.52;;;11.20;88.60;;;;;;4948432;28;20093;-74
2022/04/23 04:42:06;;;;;;;39.13;20.60;;;11.20;87.80;;;;;;4940540;29;20625;-74
2022/04/23 04:44:32;;;;;;;35.60;20.63;;;11.30;88.60;;;;;;4925935;29;20039;-75
2022/04/23 04:46:58;;;;;;;35.80;19.23;;;11.20;87.70;;;;;;4939334;28;20475;-74
2022/04/23 04:49:24;;;;;;;45.28;22.05;;;11.20;88.80;;;;;;4944459;28;20047;-74
2022/04/23 04:51:51;;;;;;;39.42;19.70;;;11.20;88.00;;;;;;4939762;28;20042;-74
2022/04/23 04:54:21;;;;;;;37.70;22.13;;;11.20;87.90;;;;;;4940767;29;20059;-73
2022/04/23 04:56:51;;;;;;;37.50;21.17;;;11.30;86.90;;;;;;4940206;28;20313;-75
2022/04/23 04:59:17;;;;;;;37.90;22.50;;;11.20;88.60;;;;;;4939386;28;20055;-74
2022/04/23 05:01:43;;;;;;;40.03;22.00;;;11.20;88.00;;;;;;4938539;28;20063;-74
2022/04/23 05:04:09;;;;;;;40.60;21.90;;;11.20;88.00;;;;;;4941122;29;20633;-74
2022/04/23 05:06:35;;;;;;;36.78;21.55;;;11.20;87.90;;;;;;4954571;28;20105;-74
2022/04/23 05:09:01;;;;;;;44.25;22.85;;;11.20;88.40;;;;;;4940379;28;20039;-73
2022/04/23 05:11:26;;;;;;;40.80;24.10;;;11.20;89.00;;;;;;4939407;28;20543;-74
2022/04/23 05:13:52;;;;;;;40.45;23.30;;;11.20;87.40;;;;;;4940312;28;20133;-74
2022/04/23 05:16:17;;;;;;;37.30;22.13;;;11.30;88.60;;;;;;4939399;28;20038;-75
2022/04/23 05:18:43;;;;;;;43.30;23.98;;;11.30;87.70;;;;;;4937306;28;20117;-74
2022/04/23 05:21:09;;;;;;;39.60;23.17;;;11.30;87.70;;;;;;4956405;28;20039;-74
2022/04/23 05:23:34;;;;;;;36.85;23.73;;;11.40;87.40;;;;;;4939505;28;20552;-74
2022/04/23 05:26:01;;;;;;;49.08;24.75;;;11.30;87.00;;;;;;4942388;28;20039;-74
2022/04/23 05:28:27;;;;;;;42.08;23.63;;;11.30;87.70;;;;;;4940097;28;20035;-73
2022/04/23 05:30:53;;;;;;;40.53;23.75;;;11.30;86.90;;;;;;4953655;28;20407;-73
2022/04/23 05:33:19;;;;;;;44.08;24.52;;;11.30;86.80;;;;;;4944146;28;20479;-73
2022/04/23 05:35:44;;;;;;;38.13;23.65;;;11.30;86.90;;;;;;4943197;28;20089;-74
2022/04/23 05:38:10;;;;;;;39.50;23.65;;;11.30;87.10;;;;;;4946378;28;20141;-74
2022/04/23 05:40:35;;;;;;;36.70;22.27;;;11.40;86.80;;;;;;4953738;28;20450;-74
2022/04/23 05:43:01;;;;;;;42.33;24.90;;;11.40;87.40;;;;;;4944147;28;20717;-74
2022/04/23 05:45:28;;;;;;;38.85;24.65;;;11.40;87.30;;;;;;4943379;28;20035;-74
2022/04/23 05:47:55;;;;;;;39.42;24.42;;;11.40;87.00;;;;;;4943816;28;20496;-75
2022/04/23 05:50:21;;;;;;;36.85;23.55;;;11.40;86.50;;;;;;4954795;28;20121;-74
2022/04/23 05:52:47;;;;;;;36.60;22.27;;;11.50;86.30;;;;;;4943598;29;20066;-74
2022/04/23 05:55:13;;;;;;;38.38;22.77;;;11.50;87.00;;;;;;4943223;28;20066;-75
2022/04/23 05:57:39;;;;;;;37.13;23.98;;;11.50;86.10;;;;;;4942569;28;20576;-74
2022/04/23 06:00:07;;;;;;;40.28;24.65;;;11.50;86.80;;;;;;4941939;28;20081;-74
2022/04/23 06:02:32;;;;;;;42.53;23.77;;;11.60;86.40;;;;;;4933361;28;20471;-74
2022/04/23 06:04:59;;;;;;;38.55;23.38;;;11.60;85.70;;;;;;4943069;28;20523;-74
2022/04/23 06:07:25;;;;;;;43.90;23.83;;;11.70;86.90;;;;;;4942934;28;20419;-74
2022/04/23 06:09:50;;;;;;;42.75;24.10;;;11.70;87.00;;;;;;4940592;28;20309;-74
2022/04/23 06:12:16;;;;;;;37.92;23.63;;;11.70;86.40;;;;;;4941818;28;20416;-75
2022/04/23 06:14:43;;;;;;;36.70;23.15;;;11.80;84.40;;;;;;4943285;28;20325;-74
2022/04/23 06:17:11;;;;;;;36.97;23.77;;;11.90;85.00;;;;;;4942480;28;20597;-74
2022/04/23 06:19:40;;;;;;;35.60;23.10;;;11.90;85.20;;;;;;4944789;28;20270;-74
2022/04/23 06:22:07;;;;;;;34.33;22.52;;;12.10;84.00;;;;;;4940545;28;20049;-75
2022/04/23 06:24:33;;;;;;;36.17;23.77;;;12.10;84.40;;;;;;4940916;28;20165;-75
2022/04/23 06:26:59;;;;;;;40.10;22.77;;;12.20;84.10;;;;;;4941559;28;20047;-74
2022/04/23 06:29:24;;;;;;;37.03;21.80;;;12.30;83.00;;;;;;4945727;28;20039;-74
2022/04/23 06:31:50;;;;;;;37.13;21.73;;;12.50;82.90;;;;;;4944248;28;20046;-74
2022/04/23 06:34:16;;;;;;;36.03;22.08;;;12.60;83.40;;;;;;4943104;28;20035;-74
2022/04/23 06:36:42;;;;;;;30.55;20.85;;;12.70;82.70;;;;;;4964255;28;20485;-74
2022/04/23 06:39:08;;;;;;;29.92;20.15;;;12.80;82.00;;;;;;4942550;28;20366;-74
2022/04/23 06:41:34;;;;;;;34.90;21.60;;;13.00;81.00;;;;;;4938849;28;20042;-74
2022/04/23 06:44:00;;;;;;;28.85;19.30;;;13.00;81.30;;;;;;4941068;28;20047;-74
2022/04/23 06:46:25;;;;;;;35.42;20.27;;;13.00;80.80;;;;;;4941548;28;20491;-75
2022/04/23 06:48:51;;;;;;;34.25;21.27;;;13.20;79.10;;;;;;4930012;28;20532;-73
2022/04/23 06:51:16;;;;;;;31.23;20.70;;;13.30;80.00;;;;;;4933273;28;20058;-72
2022/04/23 06:53:42;;;;;;;34.38;20.13;;;13.60;78.60;;;;;;4937002;28;20035;-73
2022/04/23 06:56:08;;;;;;;32.08;21.55;;;13.80;78.60;;;;;;4942254;28;20471;-73
2022/04/23 06:58:34;;;;;;;30.27;20.67;;;14.00;76.40;;;;;;4944059;28;20035;-73
2022/04/23 07:01:01;;;;;;;28.55;20.13;;;14.20;76.40;;;;;;4939424;28;20031;-72
2022/04/23 07:03:26;;;;;;;30.67;20.58;;;14.30;74.90;;;;;;4939746;28;20113;-73
2022/04/23 07:05:52;;;;;;;30.27;18.73;;;14.60;73.90;;;;;;4941135;29;20158;-73
2022/04/23 07:08:18;;;;;;;28.92;18.55;;;14.80;72.40;;;;;;4949793;28;20518;-73
2022/04/23 07:10:44;;;;;;;26.70;19.08;;;14.70;73.70;;;;;;4939361;28;20066;-72
2022/04/23 07:13:11;;;;;;;33.40;20.23;;;14.60;73.30;;;;;;4939435;28;20069;-72
2022/04/23 07:15:37;;;;;;;27.35;18.95;;;14.50;73.10;;;;;;4937535;28;20031;-73
2022/04/23 07:18:03;;;;;;;28.63;19.05;;;14.30;73.90;;;;;;4937196;28;20084;-73
2022/04/23 07:20:29;;;;;;;33.50;20.48;;;14.20;74.40;;;;;;4945449;28;20039;-72
2022/04/23 07:25:39;;;;;;;27.13;17.88;;;14.50;74.70;;;;;;4930525;28;20049;-72
2022/04/23 07:28:05;;;;;;;30.45;19.67;;;15.50;71.10;;;;;;4933546;28;20399;-72
2022/04/23 07:30:31;;;;;;;38.53;21.58;;;15.80;68.90;;;;;;4936366;28;20686;-72
2022/04/23 07:32:57;;;;;;;26.55;18.10;;;15.80;68.70;;;;;;4943123;28;21037;-72
2022/04/23 07:38:21;;;;;;;25.58;18.05;;;15.60;69.20;;;;;;4923057;28;20042;-73
2022/04/23 07:40:49;;;;;;;25.15;17.48;;;15.90;69.60;;;;;;4933827;28;21945;-73
2022/04/23 07:43:15;;;;;;;25.52;18.00;;;16.20;68.50;;;;;;4933634;28;20060;-73
2022/04/23 07:45:44;;;;;;;26.92;17.75;;;16.60;65.00;;;;;;4938479;28;20023;-73
2022/04/23 07:48:11;;;;;;;25.30;16.70;;;17.50;64.10;;;;;;4940086;28;20636;-72
2022/04/23 07:50:39;;;;;;;24.67;15.73;;;19.10;60.20;;;;;;4936323;28;20114;-73
2022/04/23 07:53:05;;;;;;;22.58;16.70;;;21.60;53.60;;;;;;4940309;28;20031;-72
2022/04/23 07:55:37;;;;;;;19.13;15.07;;;23.50;49.50;;;;;;4939350;28;20027;-73
2022/04/23 07:58:06;;;;;;;20.55;15.20;;;25.20;44.80;;;;;;4945992;28;20106;-73
2022/04/23 08:00:34;;;;;;;23.17;15.80;;;26.30;41.80;;;;;;4941113;28;20333;-75
2022/04/23 08:02:59;;;;;;;21.30;14.68;;;25.90;40.20;;;;;;4943278;28;20030;-73
2022/04/23 08:05:25;;;;;;;18.58;15.45;;;26.40;39.70;;;;;;4950823;28;20038;-73
2022/04/23 08:07:51;;;;;;;20.98;15.18;;;26.00;39.90;;;;;;4945720;28;20501;-76
2022/04/23 08:10:17;;;;;;;20.88;15.50;;;26.00;40.10;;;;;;4948222;28;20103;-74
2022/04/23 08:12:42;;;;;;;18.30;14.25;;;26.00;39.00;;;;;;4940984;28;20035;-74
2022/04/23 08:15:09;;;;;;;19.15;14.48;;;27.00;40.20;;;;;;4921085;28;20035;-74
2022/04/23 08:17:35;;;;;;;16.35;14.57;;;27.70;36.60;;;;;;4939385;28;20031;-74
2022/04/23 08:20:00;;;;;;;19.42;14.15;;;27.50;36.80;;;;;;4941110;28;20379;-73
2022/04/23 08:22:26;;;;;;;16.90;13.93;;;27.30;38.10;;;;;;4948918;28;20072;-74
2022/04/23 08:24:52;;;;;;;17.90;13.80;;;28.00;36.90;;;;;;4941563;28;20659;-74
2022/04/23 08:27:17;;;;;;;18.13;13.55;;;28.10;36.70;;;;;;4943775;28;20043;-74
2022/04/23 08:32:27;;;;;;;15.35;13.25;;;28.80;36.20;;;;;;4941736;28;20034;-74
2022/04/23 08:34:53;;;;;;;17.67;13.82;;;28.10;36.10;;;;;;4940486;28;20031;-74
2022/04/23 08:37:19;;;;;;;19.83;13.65;;;27.50;36.40;;;;;;4942509;28;20499;-74
2022/04/23 08:39:47;;;;;;;16.95;13.40;;;28.40;35.00;;;;;;4940970;28;20055;-76
2022/04/23 08:42:15;;;;;;;16.45;13.48;;;28.40;37.00;;;;;;4940986;28;20302;-73
2022/04/23 08:44:41;;;;;;;15.75;12.68;;;27.50;37.20;;;;;;4946298;28;20566;-74
2022/04/23 08:47:08;;;;;;;16.17;13.27;;;28.50;34.70;;;;;;4944513;28;20031;-74
2022/04/23 08:49:38;;;;;;;17.88;13.02;;;28.50;34.00;;;;;;4945287;28;20074;-75
2022/04/23 08:52:37;;;;;;;19.73;15.10;;;27.70;35.00;;;;;;4924160;28;20289;-75
2022/04/23 08:55:05;;;;;;;15.50;13.90;;;26.70;35.50;;;;;;4926584;28;20325;-74
2022/04/23 08:57:32;;;;;;;18.33;14.68;;;26.30;37.60;;;;;;4924027;28;20027;-75
2022/04/23 08:59:59;;;;;;;16.80;14.70;;;25.50;37.40;;;;;;4920812;28;20035;-74
2022/04/23 09:02:26;;;;;;;16.00;13.35;;;25.30;38.70;;;;;;4924021;28;20042;-74
2022/04/23 09:04:54;;;;;;;17.25;14.15;;;24.10;41.40;;;;;;4912015;28;20561;-73
2022/04/23 09:07:27;;;;;;;18.80;16.02;;;22.80;43.30;;;;;;4913819;28;20544;-77
2022/04/23 09:09:55;;;;;;;18.67;15.48;;;21.70;47.40;;;;;;4921772;28;20566;-74
2022/04/23 09:12:25;;;;;;;22.35;13.90;;;21.10;49.40;;;;;;4931662;28;20607;-74
2022/04/23 09:23:40;;;;;;;18.23;15.23;;;20.90;53.20;;;;;;4906853;28;20107;-72
2022/04/23 09:26:16;;;;;;;18.38;14.50;;;22.70;50.40;;;;;;4913684;28;20040;-73
2022/04/23 09:28:52;;;;;;;17.55;14.52;;;23.20;44.70;;;;;;4911117;29;20134;-73
2022/04/23 09:31:17;;;;;;;15.77;13.35;;;24.10;44.80;;;;;;4910421;29;20054;-74
2022/04/23 09:33:45;;;;;;;18.08;13.93;;;25.60;41.00;;;;;;4919468;29;20031;-75
2022/04/23 09:36:12;;;;;;;19.77;15.45;;;26.20;41.20;;;;;;4915164;29;20040;-80
2022/04/23 09:38:38;;;;;;;16.58;14.27;;;25.50;38.80;;;;;;4931187;28;20027;-78
2022/04/23 09:41:17;;;;;;;18.33;14.35;;;24.70;44.10;;;;;;4916144;29;20039;-76
2022/04/23 09:43:45;;;;;;;16.52;14.25;;;25.00;42.80;;;;;;4921265;29;20039;-75
2022/04/23 09:46:11;;;;;;;21.85;14.77;;;25.60;41.20;;;;;;4919603;29;20035;-77
2022/04/23 09:48:43;;;;;;;16.40;14.70;;;26.10;41.10;;;;;;4933856;28;20495;-77
2022/04/23 09:51:24;;;;;;;19.60;13.43;;;27.00;40.10;;;;;;4946028;28;20055;-77
2022/04/23 09:53:53;;;;;;;21.02;14.30;;;27.10;37.90;;;;;;4924015;28;20035;-80
2022/04/23 09:56:24;;;;;;;17.35;12.25;;;27.30;36.00;;;;;;4916451;28;20039;-80
2022/04/23 09:58:53;;;;;;;17.17;14.35;;;27.70;37.10;;;;;;4907870;29;20028;-80
2022/04/23 10:01:20;;;;;;;18.20;14.50;;;27.70;36.70;;;;;;4917525;29;20038;-77
2022/04/23 10:03:50;;;;;;;16.42;14.70;;;27.00;35.70;;;;;;4915360;29;20524;-73
2022/04/23 10:06:18;;;;;;;17.70;13.95;;;26.70;38.10;;;;;;4915658;29;20376;-73
2022/04/23 10:08:47;;;;;;;17.02;13.32;;;26.20;38.30;;;;;;4923816;29;20032;-74
2022/04/23 10:11:16;;;;;;;21.58;14.65;;;25.70;41.20;;;;;;4595753;28;9999965;-74
2022/04/23 10:13:46;;;;;;;16.40;13.80;;;25.70;39.20;;;;;;4937836;28;20027;-74
2022/04/23 10:16:13;;;;;;;17.98;14.60;;;26.00;39.00;;;;;;4940460;28;20027;-75
2022/04/23 10:18:40;;;;;;;17.88;14.15;;;25.70;39.10;;;;;;4942724;28;20035;-75
2022/04/23 10:21:39;;;;;;;17.48;14.20;;;26.20;39.90;;;;;;4935335;28;20126;-76
2022/04/23 10:24:48;;;;;;;16.55;13.85;;;26.00;37.60;;;;;;4908976;28;20101;-74
2022/04/23 10:27:15;;;;;;;20.83;15.35;;;25.40;39.00;;;;;;4940730;28;20046;-74
2022/04/23 10:29:41;;;;;;;16.65;14.85;;;24.10;41.10;;;;;;4938979;28;20039;-76
2022/04/23 10:32:13;;;;;;;16.60;14.88;;;24.00;42.20;;;;;;4930620;28;20086;-76
2022/04/23 10:34:40;;;;;;;17.13;14.82;;;24.10;43.70;;;;;;4943744;28;20687;-74
2022/04/23 10:37:14;;;;;;;18.10;14.15;;;24.70;41.40;;;;;;4946585;28;20034;-77
2022/04/23 10:39:40;;;;;;;15.85;14.05;;;25.00;39.90;;;;;;4938982;28;20857;-78
2022/04/23 10:42:06;;;;;;;18.27;15.45;;;25.60;39.20;;;;;;4935689;28;20027;-82
2022/04/23 10:44:32;;;;;;;16.70;14.90;;;25.60;39.80;;;;;;4939395;28;20098;-77
2022/04/23 10:46:58;;;;;;;17.50;14.52;;;25.30;41.10;;;;;;4942944;28;20511;-76
2022/04/23 10:49:25;;;;;;;16.40;14.73;;;25.80;38.70;;;;;;4936998;28;20183;-76
2022/04/23 10:51:56;;;;;;;20.05;15.50;;;25.70;39.30;;;;;;4939751;28;20569;-76
2022/04/23 10:54:40;;;;;;;19.75;14.55;;;25.10;39.30;;;;;;4940152;28;20082;-74
2022/04/23 10:57:13;;;;;;;19.15;14.07;;;25.00;41.80;;;;;;4941991;28;20031;-74
2022/04/23 10:59:48;;;;;;;20.20;15.63;;;24.70;44.50;;;;;;4938391;28;20035;-75
2022/04/23 11:02:19;;;;;;;22.38;16.70;;;24.80;41.80;;;;;;4937694;28;20159;-75
2022/04/23 11:13:29;;;;;;;20.83;16.20;;;24.90;45.30;;;;;;4938214;28;20171;-74
2022/04/23 11:16:16;;;;;;;20.75;15.80;;;24.50;41.90;;;;;;4936804;28;20039;-75
2022/04/23 11:18:43;;;;;;;20.98;15.70;;;24.00;44.00;;;;;;4939133;28;20035;-75
2022/04/23 11:21:19;;;;;;;21.55;17.38;;;24.50;40.40;;;;;;4939850;28;20031;-76
2022/04/23 11:23:45;;;;;;;22.73;16.65;;;24.40;40.20;;;;;;4934313;28;20086;-74
2022/04/23 11:26:18;;;;;;;23.13;17.30;;;23.40;43.00;;;;;;4940764;28;20041;-75
2022/04/23 11:28:46;;;;;;;21.38;16.98;;;23.40;44.00;;;;;;4940646;28;20126;-73
2022/04/23 11:31:18;;;;;;;23.33;17.33;;;22.90;45.80;;;;;;4936995;28;20098;-76
2022/04/23 11:34:01;;;;;;;23.42;16.58;;;22.40;50.30;;;;;;4931340;28;20130;-77
2022/04/23 11:36:28;;;;;;;24.30;16.52;;;21.90;47.30;;;;;;4939305;28;20034;-75
2022/04/23 11:38:58;;;;;;;22.10;17.23;;;21.60;47.90;;;;;;4936528;28;20209;-75
2022/04/23 11:41:43;;;;;;;20.13;16.65;;;21.70;47.20;;;;;;4923512;28;20028;-76
2022/04/23 11:44:17;;;;;;;24.42;16.20;;;21.70;48.60;;;;;;4939929;28;20039;-76
2022/04/23 11:46:48;;;;;;;19.50;15.50;;;21.90;47.20;;;;;;4940886;29;20031;-77
2022/04/23 11:49:29;;;;;;;20.15;16.50;;;21.90;48.20;;;;;;4936580;28;20497;-79
2022/04/23 11:52:05;;;;;;;24.00;17.45;;;21.30;48.60;;;;;;4936555;28;20126;-77
2022/04/23 11:54:38;;;;;;;23.08;16.92;;;21.10;49.00;;;;;;4938517;28;20034;-74
2022/04/23 11:57:05;;;;;;;23.52;16.48;;;20.90;49.40;;;;;;4938645;28;20375;-78
2022/04/23 11:59:39;;;;;;;22.85;15.65;;;20.90;51.40;;;;;;4941097;28;20027;-77
2022/04/23 12:02:08;;;;;;;22.92;17.08;;;21.10;58.80;;;;;;4941859;28;20038;-77
2022/04/23 12:04:41;;;;;;;22.73;17.55;;;21.10;49.00;;;;;;4940373;28;20075;-78
2022/04/23 12:07:06;;;;;;;21.27;16.92;;;20.90;48.90;;;;;;4938795;29;20035;-76
2022/04/23 12:09:42;;;;;;;20.05;15.85;;;21.10;51.00;;;;;;4940190;28;20058;-79
2022/04/23 12:12:08;;;;;;;24.15;17.98;;;21.50;53.90;;;;;;4940437;28;20047;-77
2022/04/23 12:14:46;;;;;;;24.60;17.45;;;21.40;48.00;;;;;;4939648;28;20071;-79
2022/04/23 12:17:31;;;;;;;21.83;16.80;;;21.70;50.10;;;;;;4940503;28;20909;-82
2022/04/23 12:19:59;;;;;;;23.80;17.35;;;21.40;51.10;;;;;;4944178;28;20106;-82
2022/04/23 12:22:32;;;;;;;20.73;17.25;;;20.90;48.90;;;;;;4934091;29;20062;-76
2022/04/23 12:25:18;;;;;;;20.33;16.92;;;20.90;49.20;;;;;;4939331;28;20034;-76
2022/04/23 12:28:03;;;;;;;27.42;18.83;;;20.60;55.70;;;;;;4939351;28;20125;-76
2022/04/23 12:42:26;;;;;;;23.50;17.77;;;20.10;52.40;;;;;;4931244;29;20499;-77
2022/04/23 12:44:53;;;;;;;22.70;18.85;;;20.60;52.50;;;;;;4912869;29;20078;-74
2022/04/23 12:47:33;;;;;;;20.55;16.67;;;20.70;50.90;;;;;;4927718;29;20097;-78
2022/04/23 12:50:02;;;;;;;24.47;18.93;;;20.80;53.40;;;;;;4935415;28;20626;-76
2022/04/23 12:52:45;;;;;;;22.80;19.00;;;20.80;50.50;;;;;;4939343;28;20031;-76
2022/04/23 12:55:14;;;;;;;25.45;17.90;;;20.90;48.90;;;;;;4938294;28;20179;-80
2022/04/23 12:57:53;;;;;;;25.17;18.65;;;20.60;50.80;;;;;;4939624;28;20441;-75
2022/04/23 13:00:22;;;;;;;23.38;18.75;;;20.00;53.30;;;;;;4926008;29;20038;-76
2022/04/23 13:02:53;;;;;;;24.67;18.45;;;19.70;51.20;;;;;;4951274;28;20398;-77
2022/04/23 13:05:19;;;;;;;25.23;19.10;;;19.90;58.20;;;;;;4937524;28;20305;-76
2022/04/23 13:10:30;;;;;;;25.70;18.67;;;19.80;52.90;;;;;;4940791;28;20065;-74